Accueil
METAR-TAF:

METAR-TAF

Aéroports :

Beaufort, Caroline du Sud, États-Unis

latitude: 32-29-37N, longitude: 080-42-11W, altitude: 11 m

Observation

Le bulletin a été fait il y a 53 minutes, à 21:56 UTC
Vent 3 kt de nord
Température 16°C
Humidité 55%
Pression 1021 hPa
Visibilité: 16.1 km
Ciel clair

METAR: KNBC 202156Z 36003KT 10SM CLR 16/07 A3016 RMK AO2 SLP214 T01610072

Heure: 17:49 (22:49 UTC)

Prévision

Prévision valable du 20 à 21 UTC au 21 à 21 UTC
Vent 8 kt de nord
Visibilité 10 km ou plus
Ciel clair
Evoluant progressivement
du 21 à 02 UTC au 21 à 04 UTC
Vent 4 kt de direction variable
Visibilité 10 km ou plus
Ciel clair

TAF: KNBC 2021/2121 35008KT 9999 SKC QNH3008INS BECMG 2102/2104 VRB04KT 9999 SKC QNH3012INS T05/2010Z T16/2019Z

Observations et prévisions météorologiques de plus de 4000 aéroports (messages METAR et TAF).

Les stations disponibles sont représentées par des disques jaunes et rouges sur la carte.

Passer la souris dessus pour voir le nom de la station.

Cliquer dessus pour voir les observations et prévisions météorologiques.

Pour changer de carte: cliquez sur les boutons verts avec une croix noire pour zoomer, sur le bouton vert avec un tiret pour effectuer un zoom arrière, ou sur les flèches vertes pour les cartes adjacentes.


METAR-TAF: